Time;durP1;ratioP1;P1;durP2;ratioP2;P2;SDS_P1;SDS_P2;PMS_P1;PMS_P2;Temp;Humidity;BMP_temperature;BMP_pressure;BME280_temperature;BME280_humidity;BME280_pressure;Samples;Min_cycle;Max_cycle;Signal;HPM_P1;HPM_P2
2022/07/08 00:00:17;;;;;;;4.30;2.63;;;;;;;20.31;62.67;100595.19;1684471;84;20970;-68
2022/07/08 00:02:45;;;;;;;5.40;2.40;;;;;;;20.28;63.00;100593.69;1682178;84;21062;-68
2022/07/08 00:05:19;;;;;;;4.57;2.40;;;;;;;20.24;63.35;100598.95;1687187;84;21148;-69
2022/07/08 00:07:55;;;;;;;4.30;2.53;;;;;;;20.26;63.60;100612.18;1663241;84;21112;-68
2022/07/08 00:10:26;;;;;;;6.00;2.73;;;;;;;20.27;63.71;100617.30;1684672;84;21002;-67
2022/07/08 00:13:06;;;;;;;3.37;2.20;;;;;;;20.28;63.64;100631.66;1679244;84;21037;-68
2022/07/08 00:15:36;;;;;;;4.97;2.50;;;;;;;20.28;63.48;100636.52;1684943;84;21124;-69
2022/07/08 00:18:10;;;;;;;3.80;2.35;;;;;;;20.30;63.57;100646.50;1684060;84;21325;-68
2022/07/08 00:20:50;;;;;;;3.33;2.53;;;;;;;20.28;63.88;100654.72;1676157;84;21041;-67
2022/07/08 00:23:30;;;;;;;3.47;2.30;;;;;;;20.27;64.12;100659.34;1669753;85;20986;-68
2022/07/08 00:26:00;;;;;;;3.20;2.37;;;;;;;20.23;64.42;100669.22;1683986;84;21655;-68
2022/07/08 00:28:39;;;;;;;4.40;2.23;;;;;;;20.17;64.57;100677.83;1681117;84;21094;-68
2022/07/08 00:31:16;;;;;;;4.03;2.50;;;;;;;20.13;64.62;100684.45;1684387;84;21216;-68
2022/07/08 00:33:53;;;;;;;3.95;2.35;;;;;;;20.10;64.64;100690.50;1685085;84;21095;-68
2022/07/08 00:36:35;;;;;;;4.10;2.50;;;;;;;20.08;64.79;100687.33;1682876;84;21563;-69
2022/07/08 00:39:05;;;;;;;6.00;2.53;;;;;;;20.09;65.06;100691.06;1680157;84;21063;-68
2022/07/08 00:41:31;;;;;;;5.10;2.50;;;;;;;20.13;65.36;100695.30;1677953;84;21580;-67
2022/07/08 00:43:59;;;;;;;4.23;2.30;;;;;;;20.10;65.58;100699.47;1682126;84;21129;-68
2022/07/08 00:46:26;;;;;;;4.27;2.43;;;;;;;20.12;65.75;100696.42;1669831;84;21038;-68
2022/07/08 00:48:52;;;;;;;3.83;2.43;;;;;;;20.15;65.88;100702.56;1686156;83;21588;-68
2022/07/08 00:51:19;;;;;;;4.47;2.60;;;;;;;20.19;66.02;100699.45;1693117;83;21792;-68
2022/07/08 00:53:51;;;;;;;3.87;2.33;;;;;;;20.24;66.19;100696.59;1684017;84;21040;-68
2022/07/08 00:56:21;;;;;;;3.83;2.27;;;;;;;20.30;66.06;100700.75;1678677;83;21106;-68
2022/07/08 00:58:49;;;;;;;3.17;2.23;;;;;;;20.36;65.94;100695.38;1674533;84;21080;-68
2022/07/08 01:01:16;;;;;;;3.17;2.10;;;;;;;20.42;65.75;100692.52;1681917;84;21035;-68
2022/07/08 01:03:44;;;;;;;3.93;2.23;;;;;;;20.45;65.53;100686.45;1675958;84;21023;-68
2022/07/08 01:06:11;;;;;;;3.70;2.10;;;;;;;20.49;65.35;100686.05;1682286;84;21016;-69
2022/07/08 01:08:38;;;;;;;4.20;2.10;;;;;;;20.50;65.24;100689.81;1684071;84;21565;-68
2022/07/08 01:11:04;;;;;;;3.37;2.20;;;;;;;20.53;65.01;100682.42;1682734;84;21053;-68
2022/07/08 01:13:31;;;;;;;3.33;2.37;;;;;;;20.53;64.77;100674.28;1688266;84;21189;-67
2022/07/08 01:15:58;;;;;;;3.50;2.10;;;;;;;20.54;64.67;100677.79;1684304;84;21013;-68
2022/07/08 01:18:29;;;;;;;3.70;2.33;;;;;;;20.55;64.62;100684.23;1683851;84;21571;-68
2022/07/08 01:20:58;;;;;;;4.20;2.30;;;;;;;20.57;64.63;100681.22;1680561;84;21558;-67
2022/07/08 01:23:24;;;;;;;4.87;2.40;;;;;;;20.60;64.66;100686.80;1682736;84;21665;-68
2022/07/08 01:25:52;;;;;;;3.53;2.07;;;;;;;20.62;64.66;100685.11;1684162;84;21171;-68
2022/07/08 01:28:19;;;;;;;4.43;2.00;;;;;;;20.64;64.73;100685.59;1681574;84;20966;-67
2022/07/08 01:30:45;;;;;;;3.40;2.10;;;;;;;20.65;64.74;100676.33;1685488;85;21084;-67
2022/07/08 01:33:12;;;;;;;2.93;2.00;;;;;;;20.65;64.74;100672.82;1683294;84;21672;-68
2022/07/08 01:35:39;;;;;;;4.93;2.17;;;;;;;20.63;64.82;100670.41;1683055;84;21600;-68
2022/07/08 01:38:05;;;;;;;3.00;2.00;;;;;;;20.60;65.01;100676.51;1681363;84;21042;-68
2022/07/08 01:40:33;;;;;;;2.73;2.10;;;;;;;20.59;65.23;100678.40;1683989;84;21011;-68
2022/07/08 01:43:00;;;;;;;3.97;2.00;;;;;;;20.61;65.46;100684.31;1682534;84;21041;-68
2022/07/08 01:45:27;;;;;;;4.03;2.30;;;;;;;20.64;65.67;100685.59;1680132;85;21558;-67
2022/07/08 01:47:54;;;;;;;3.70;2.27;;;;;;;20.66;65.75;100692.05;1680861;84;20959;-68
2022/07/08 01:50:21;;;;;;;2.70;2.07;;;;;;;20.60;65.75;100689.52;1682833;84;21089;-68
2022/07/08 01:52:47;;;;;;;4.03;2.40;;;;;;;20.54;65.92;100686.72;1684865;84;21568;-68
2022/07/08 01:55:14;;;;;;;4.30;2.40;;;;;;;20.45;66.11;100687.25;1688790;84;21104;-69
2022/07/08 01:57:42;;;;;;;3.80;2.50;;;;;;;20.42;66.23;100678.95;1685145;84;21916;-69
2022/07/08 02:00:10;;;;;;;3.27;2.50;;;;;;;20.34;66.29;100678.64;1680028;85;21541;-69
2022/07/08 02:02:39;;;;;;;3.30;2.60;;;;;;;20.29;66.27;100672.58;1667270;84;21666;-68
2022/07/08 02:05:09;;;;;;;4.73;2.33;;;;;;;20.24;66.32;100676.25;1690667;84;21509;-69
2022/07/08 02:07:37;;;;;;;3.37;2.43;;;;;;;20.18;66.39;100675.38;1687450;84;21055;-68
2022/07/08 02:10:05;;;;;;;4.10;2.50;;;;;;;20.13;66.34;100674.39;1680306;85;21101;-67
2022/07/08 02:12:32;;;;;;;3.97;2.43;;;;;;;20.11;66.28;100674.50;1680290;84;21533;-68
2022/07/08 02:15:02;;;;;;;4.07;2.60;;;;;;;20.09;66.16;100674.80;1686737;84;20997;-68
2022/07/08 02:17:36;;;;;;;4.80;2.52;;;;;;;20.05;65.89;100675.20;1681112;84;21058;-69
2022/07/08 02:20:05;;;;;;;3.90;2.40;;;;;;;20.00;65.83;100673.98;1674682;84;21079;-67
2022/07/08 02:22:32;;;;;;;2.57;1.97;;;;;;;19.97;65.78;100673.26;1676530;84;21099;-67
2022/07/08 02:24:59;;;;;;;3.63;2.07;;;;;;;19.96;65.63;100677.09;1680458;85;21015;-67
2022/07/08 02:27:26;;;;;;;3.20;2.10;;;;;;;19.98;65.50;100680.86;1679132;85;21071;-69
2022/07/08 02:29:52;;;;;;;3.23;2.13;;;;;;;19.98;65.43;100690.35;1678488;84;21058;-68
2022/07/08 02:32:19;;;;;;;3.20;2.00;;;;;;;20.00;65.38;100682.68;1678998;84;21543;-68
2022/07/08 02:34:45;;;;;;;3.93;2.20;;;;;;;20.03;65.12;100680.69;1677110;84;21228;-68
2022/07/08 02:37:18;;;;;;;4.13;2.30;;;;;;;20.01;65.03;100679.67;1684724;84;21066;-68
2022/07/08 02:39:41;;;;;;;2.57;1.90;;;;;;;19.99;65.04;100677.02;1684236;84;21008;-69
2022/07/08 02:42:09;;;;;;;2.53;1.97;;;;;;;19.96;65.11;100681.16;1684922;84;21045;-68
2022/07/08 02:44:37;;;;;;;3.10;2.10;;;;;;;19.96;65.10;100685.79;1680818;84;21102;-67
2022/07/08 02:47:05;;;;;;;3.47;2.40;;;;;;;19.98;64.88;100691.70;1679037;84;21793;-67
2022/07/08 02:49:32;;;;;;;3.17;2.13;;;;;;;19.99;64.62;100682.45;1674954;84;21137;-67
2022/07/08 02:51:58;;;;;;;3.50;2.30;;;;;;;19.99;64.33;100677.81;1675124;84;21106;-69
2022/07/08 02:54:25;;;;;;;2.70;2.00;;;;;;;19.96;64.14;100679.80;1675730;84;21122;-68
2022/07/08 02:56:51;;;;;;;4.00;2.10;;;;;;;19.94;64.02;100682.05;1672833;84;21086;-67
2022/07/08 02:59:18;;;;;;;2.90;2.20;;;;;;;19.93;63.96;100689.92;1680419;84;21081;-68
2022/07/08 03:01:45;;;;;;;2.90;2.30;;;;;;;19.93;63.94;100693.99;1672926;84;21067;-67
2022/07/08 03:04:11;;;;;;;4.93;2.00;;;;;;;19.96;63.82;100693.36;1675108;84;21094;-67
2022/07/08 03:06:37;;;;;;;3.50;2.10;;;;;;;19.98;63.69;100698.48;1673958;84;21134;-68
2022/07/08 03:09:04;;;;;;;3.37;2.00;;;;;;;20.01;63.66;100699.21;1671250;84;21154;-68
2022/07/08 03:11:31;;;;;;;4.00;2.03;;;;;;;20.03;63.65;100695.04;1675935;84;21595;-68
2022/07/08 03:13:58;;;;;;;3.03;1.97;;;;;;;20.05;63.57;100692.83;1677270;84;21000;-68
2022/07/08 03:16:25;;;;;;;3.33;2.13;;;;;;;20.08;63.67;100696.82;1676942;84;21071;-69
2022/07/08 03:18:52;;;;;;;2.50;2.10;;;;;;;20.10;63.86;100696.75;1677643;84;21086;-68
2022/07/08 03:21:19;;;;;;;2.83;1.90;;;;;;;20.14;64.09;100699.62;1675184;84;21188;-67
2022/07/08 03:23:45;;;;;;;4.00;2.10;;;;;;;20.19;64.05;100697.30;1674664;84;21918;-68
2022/07/08 03:26:14;;;;;;;3.50;2.20;;;;;;;20.21;63.94;100698.59;1675075;84;21070;-68
2022/07/08 03:28:40;;;;;;;3.53;2.00;;;;;;;20.22;63.64;100692.04;1674501;84;21546;-69
2022/07/08 03:31:08;;;;;;;3.40;2.00;;;;;;;20.26;63.50;100698.98;1674236;84;21015;-68
2022/07/08 03:33:35;;;;;;;4.10;2.30;;;;;;;20.30;63.31;100695.86;1674669;84;21792;-69
2022/07/08 03:36:03;;;;;;;2.67;2.00;;;;;;;20.33;63.07;100702.80;1675555;84;21166;-69
2022/07/08 03:38:30;;;;;;;3.67;2.13;;;;;;;20.37;62.84;100699.71;1674129;84;21062;-69
2022/07/08 03:43:42;;;;;;;3.93;2.00;;;;;;;20.46;61.85;100692.91;1676679;84;20917;-69
2022/07/08 03:46:10;;;;;;;4.13;2.17;;;;;;;20.50;61.78;100693.06;1674446;84;22277;-69
2022/07/08 03:48:36;;;;;;;3.10;2.10;;;;;;;20.51;61.60;100690.08;1674680;84;21111;-68
2022/07/08 03:51:03;;;;;;;2.77;1.80;;;;;;;20.56;61.27;100685.03;1675485;84;21070;-68
2022/07/08 03:53:30;;;;;;;3.90;1.87;;;;;;;20.56;61.01;100683.67;1677023;84;21099;-68
2022/07/08 03:55:58;;;;;;;4.20;1.80;;;;;;;20.57;60.90;100679.30;1676022;84;21071;-68
2022/07/08 03:58:24;;;;;;;2.53;1.53;;;;;;;20.57;60.90;100679.86;1677693;84;21075;-69
2022/07/08 04:00:51;;;;;;;2.80;1.80;;;;;;;20.61;60.78;100679.45;1675197;84;21145;-68
2022/07/08 04:03:18;;;;;;;4.27;2.10;;;;;;;20.62;60.38;100679.68;1676857;84;21079;-68
2022/07/08 04:05:44;;;;;;;3.97;1.90;;;;;;;20.64;60.26;100676.09;1674700;84;21102;-68
2022/07/08 04:08:12;;;;;;;2.17;1.70;;;;;;;20.69;60.18;100681.34;1673952;84;21074;-67
2022/07/08 04:10:39;;;;;;;2.67;1.60;;;;;;;20.75;59.89;100684.13;1674291;84;21022;-68
2022/07/08 04:13:06;;;;;;;3.13;1.87;;;;;;;20.80;59.68;100683.97;1675875;84;21140;-68
2022/07/08 04:15:33;;;;;;;2.70;1.80;;;;;;;20.87;59.34;100687.55;1672021;84;21649;-67
2022/07/08 04:18:01;;;;;;;3.43;1.50;;;;;;;20.90;59.08;100688.83;1674592;84;21074;-67
2022/07/08 04:20:28;;;;;;;3.17;1.90;;;;;;;20.92;59.02;100691.44;1675321;84;21530;-67
2022/07/08 04:22:54;;;;;;;2.07;1.70;;;;;;;20.97;58.90;100695.91;1675251;84;21169;-67
2022/07/08 04:25:21;;;;;;;2.20;1.60;;;;;;;20.99;58.89;100701.27;1674519;84;21897;-67
2022/07/08 04:27:49;;;;;;;4.67;2.00;;;;;;;21.03;58.97;100710.35;1676631;84;21015;-68
2022/07/08 04:30:15;;;;;;;2.83;1.70;;;;;;;21.10;58.82;100709.06;1680256;85;21066;-67
2022/07/08 04:32:42;;;;;;;7.30;1.93;;;;;;;21.17;58.58;100718.86;1677837;84;21101;-67
2022/07/08 04:35:09;;;;;;;2.83;1.73;;;;;;;21.23;58.46;100714.29;1674069;84;21621;-67
2022/07/08 04:37:35;;;;;;;3.00;1.90;;;;;;;21.27;58.13;100713.08;1674982;84;21104;-68
2022/07/08 04:40:02;;;;;;;3.67;1.87;;;;;;;21.34;58.11;100722.08;1674089;84;21150;-66
2022/07/08 04:42:29;;;;;;;2.40;1.50;;;;;;;21.38;57.60;100718.97;1675902;84;21333;-67
2022/07/08 04:44:55;;;;;;;2.57;1.57;;;;;;;21.44;57.31;100719.03;1674572;84;21082;-67
2022/07/08 04:47:22;;;;;;;4.03;1.83;;;;;;;21.52;57.15;100725.01;1678803;84;21122;-68
2022/07/08 04:49:48;;;;;;;2.23;1.40;;;;;;;21.61;56.99;100727.67;1680245;85;21729;-68
2022/07/08 04:52:15;;;;;;;3.30;1.60;;;;;;;21.69;56.36;100725.48;1678902;84;21136;-70
2022/07/08 04:54:42;;;;;;;3.33;1.70;;;;;;;21.72;56.11;100724.27;1679195;84;21044;-67
2022/07/08 04:57:10;;;;;;;5.90;2.20;;;;;;;21.78;56.18;100724.31;1680367;85;21676;-68
2022/07/08 04:59:36;;;;;;;5.10;2.03;;;;;;;21.86;55.57;100723.23;1676407;84;21078;-67
2022/07/08 05:02:03;;;;;;;4.37;1.80;;;;;;;21.85;55.33;100722.98;1671113;84;21121;-67
2022/07/08 05:04:30;;;;;;;3.30;1.80;;;;;;;21.90;55.44;100728.24;1674927;84;21415;-68
2022/07/08 05:06:57;;;;;;;2.93;1.63;;;;;;;21.97;55.20;100722.50;1676624;84;21034;-68
2022/07/08 05:09:24;;;;;;;2.73;1.60;;;;;;;21.96;54.65;100723.64;1679624;85;20989;-68
2022/07/08 05:11:50;;;;;;;4.47;2.03;;;;;;;21.92;54.88;100714.55;1678100;84;21236;-67
2022/07/08 05:14:17;;;;;;;3.77;1.80;;;;;;;21.91;55.21;100714.30;1680191;85;21231;-67
2022/07/08 05:16:44;;;;;;;2.60;1.60;;;;;;;21.92;55.25;100712.41;1680223;85;21030;-67
2022/07/08 05:19:10;;;;;;;3.07;1.90;;;;;;;21.88;55.14;100715.52;1674925;84;21058;-68
2022/07/08 05:21:38;;;;;;;2.40;1.80;;;;;;;21.85;55.34;100721.62;1674898;84;21065;-67
2022/07/08 05:24:05;;;;;;;4.30;1.67;;;;;;;21.86;55.56;100728.67;1673701;84;21181;-68
2022/07/08 05:26:33;;;;;;;5.73;2.10;;;;;;;21.86;55.43;100731.39;1677330;84;22172;-67
2022/07/08 05:29:00;;;;;;;3.07;1.80;;;;;;;21.82;55.71;100731.82;1674402;84;21085;-67
2022/07/08 05:31:27;;;;;;;6.73;2.00;;;;;;;21.75;55.67;100730.95;1675298;84;21115;-69
2022/07/08 05:33:54;;;;;;;6.57;2.30;;;;;;;21.68;55.98;100740.97;1674126;84;21071;-68
2022/07/08 05:36:21;;;;;;;4.93;1.97;;;;;;;21.61;56.55;100744.77;1675182;84;21677;-67
2022/07/08 05:38:48;;;;;;;8.60;2.50;;;;;;;21.57;57.75;100742.48;1674926;84;21147;-69
2022/07/08 05:41:15;;;;;;;4.60;1.87;;;;;;;21.53;57.91;100742.90;1673997;84;21110;-69
2022/07/08 05:43:42;;;;;;;3.40;1.60;;;;;;;21.56;58.03;100747.69;1674426;84;22395;-68
2022/07/08 05:46:08;;;;;;;3.17;1.70;;;;;;;21.51;58.30;100757.36;1674612;83;21090;-68
2022/07/08 05:48:36;;;;;;;3.63;1.60;;;;;;;21.35;57.94;100754.94;1679293;85;21114;-67
2022/07/08 05:51:02;;;;;;;2.63;1.60;;;;;;;21.21;58.19;100762.70;1674615;84;21757;-68
2022/07/08 05:53:29;;;;;;;2.90;1.87;;;;;;;21.15;59.40;100769.42;1675383;84;21379;-68
2022/07/08 05:55:56;;;;;;;3.47;1.53;;;;;;;21.10;59.97;100765.53;1674675;84;20983;-68
2022/07/08 05:58:23;;;;;;;5.70;2.00;;;;;;;21.05;60.46;100770.55;1675174;84;21106;-69
2022/07/08 06:00:50;;;;;;;3.83;1.93;;;;;;;21.02;60.89;100769.84;1674577;84;21121;-68
2022/07/08 06:03:16;;;;;;;4.10;2.03;;;;;;;20.98;61.22;100761.31;1674374;84;21271;-68
2022/07/08 06:05:44;;;;;;;2.77;1.63;;;;;;;20.99;61.27;100750.68;1671793;84;21141;-67
2022/07/08 06:08:12;;;;;;;2.63;1.50;;;;;;;21.00;61.26;100736.80;1674364;84;21074;-67
2022/07/08 06:10:39;;;;;;;3.07;1.87;;;;;;;20.95;61.13;100734.80;1674827;84;21058;-68
2022/07/08 06:13:05;;;;;;;3.40;1.80;;;;;;;20.88;61.54;100729.07;1674887;84;21031;-68
2022/07/08 06:15:32;;;;;;;3.40;1.90;;;;;;;20.84;61.82;100732.42;1676208;84;21134;-68
2022/07/08 06:17:59;;;;;;;4.83;2.10;;;;;;;20.79;61.90;100720.36;1677647;84;21150;-68
2022/07/08 06:20:26;;;;;;;4.47;2.10;;;;;;;20.71;62.35;100692.69;1680370;85;21068;-68
2022/07/08 06:22:53;;;;;;;3.70;2.70;;;;;;;20.62;62.55;100663.40;1678869;84;21039;-69
2022/07/08 06:25:19;;;;;;;4.23;2.40;;;;;;;20.51;63.40;100641.80;1679495;84;21097;-69
2022/07/08 06:27:46;;;;;;;2.70;2.17;;;;;;;20.46;63.91;100636.50;1680543;85;21641;-69
2022/07/08 06:30:13;;;;;;;2.93;2.20;;;;;;;20.43;64.50;100652.05;1680635;85;21314;-69
2022/07/08 06:32:40;;;;;;;4.23;2.50;;;;;;;20.35;64.92;100648.24;1678292;84;21693;-68
2022/07/08 06:35:08;;;;;;;2.77;2.10;;;;;;;20.12;65.43;100651.67;1680320;85;21053;-68
2022/07/08 06:37:35;;;;;;;3.97;2.40;;;;;;;20.11;65.76;100659.58;1674412;84;21074;-68
2022/07/08 06:40:08;;;;;;;3.47;2.30;;;;;;;20.12;66.05;100667.95;1675826;84;22428;-68
2022/07/08 06:42:34;;;;;;;5.00;2.72;;;;;;;20.10;66.16;100667.45;1673347;84;28422;-68
2022/07/08 06:45:03;;;;;;;3.23;2.50;;;;;;;20.11;66.28;100682.62;1675794;84;21097;-69
2022/07/08 06:47:31;;;;;;;3.23;2.40;;;;;;;20.12;66.09;100672.02;1677472;84;21027;-68
2022/07/08 06:49:59;;;;;;;3.33;2.33;;;;;;;20.13;65.96;100661.40;1675119;84;21015;-67
2022/07/08 06:52:25;;;;;;;4.53;2.53;;;;;;;20.12;66.09;100647.05;1674363;84;21216;-68
2022/07/08 06:54:51;;;;;;;4.20;2.43;;;;;;;20.14;66.36;100652.16;1674785;84;21007;-68
2022/07/08 06:57:21;;;;;;;3.30;2.23;;;;;;;20.17;66.26;100654.77;1675810;84;21046;-67
2022/07/08 06:59:47;;;;;;;3.90;2.40;;;;;;;20.17;65.71;100652.89;1675204;84;21090;-68
2022/07/08 07:02:15;;;;;;;3.07;2.13;;;;;;;20.18;65.96;100644.19;1678228;84;21068;-69
2022/07/08 07:04:42;;;;;;;4.97;2.70;;;;;;;20.19;65.99;100649.84;1675125;84;21507;-68
2022/07/08 07:07:10;;;;;;;3.37;2.20;;;;;;;20.17;65.68;100658.84;1674867;84;21082;-67
2022/07/08 07:09:36;;;;;;;3.23;2.17;;;;;;;20.17;65.68;100661.02;1674432;84;21514;-68
2022/07/08 07:12:03;;;;;;;3.60;2.20;;;;;;;20.22;65.90;100668.98;1674851;84;21082;-68
2022/07/08 07:14:31;;;;;;;2.77;2.00;;;;;;;20.29;65.05;100669.86;1671713;84;21645;-68
2022/07/08 07:16:59;;;;;;;3.63;2.17;;;;;;;20.34;64.62;100673.78;1674720;84;22137;-68
2022/07/08 07:19:27;;;;;;;4.00;2.30;;;;;;;20.43;64.44;100677.83;1678186;84;21019;-68
2022/07/08 07:21:54;;;;;;;3.53;1.90;;;;;;;20.52;64.32;100682.73;1679124;84;21138;-69
2022/07/08 07:24:21;;;;;;;3.50;2.20;;;;;;;20.64;64.01;100685.59;1676089;84;21016;-68
2022/07/08 07:26:48;;;;;;;3.93;2.30;;;;;;;20.75;63.32;100688.20;1679113;85;21076;-68
2022/07/08 07:29:15;;;;;;;7.10;2.70;;;;;;;20.83;62.79;100690.12;1674440;84;21511;-68
2022/07/08 07:31:42;;;;;;;3.43;2.03;;;;;;;20.88;62.50;100700.00;1671218;85;21017;-68
2022/07/08 07:34:09;;;;;;;3.07;1.83;;;;;;;20.92;61.28;100698.22;1674785;84;21123;-69
2022/07/08 07:36:36;;;;;;;3.80;2.20;;;;;;;20.93;60.97;100699.05;1674770;84;21035;-69
2022/07/08 07:39:04;;;;;;;3.80;2.20;;;;;;;20.93;61.11;100695.77;1677653;85;21055;-68
2022/07/08 07:41:40;;;;;;;3.83;2.00;;;;;;;20.97;60.95;100691.28;1675568;85;21166;-69
2022/07/08 07:44:07;;;;;;;4.50;2.30;;;;;;;20.98;60.16;100692.86;1674048;84;21102;-68
2022/07/08 07:46:33;;;;;;;4.47;2.70;;;;;;;20.94;60.10;100681.06;1680380;85;21522;-67
2022/07/08 07:49:01;;;;;;;11.50;4.27;;;;;;;20.90;60.18;100679.33;1680715;84;21023;-69
2022/07/08 07:51:28;;;;;;;3.83;2.27;;;;;;;20.91;60.50;100677.63;1673134;85;21506;-69
2022/07/08 07:53:55;;;;;;;3.23;1.73;;;;;;;20.96;60.51;100673.94;1674315;84;21849;-67
2022/07/08 07:56:23;;;;;;;2.57;1.70;;;;;;;20.99;59.84;100659.17;1671840;85;21046;-69
2022/07/08 07:58:57;;;;;;;2.50;1.67;;;;;;;21.04;59.42;100661.70;1675069;85;21139;-67
2022/07/08 08:01:24;;;;;;;4.27;1.90;;;;;;;21.07;59.14;100660.27;1680899;85;21097;-68
2022/07/08 08:03:53;;;;;;;2.80;1.90;;;;;;;21.07;59.02;100656.98;1660585;84;21280;-68
2022/07/08 08:06:22;;;;;;;4.83;2.23;;;;;;;21.06;58.76;100654.60;1666838;85;21257;-68
2022/07/08 08:08:57;;;;;;;3.65;1.98;;;;;;;21.07;59.04;100652.11;1680071;85;21056;-68
2022/07/08 08:11:25;;;;;;;3.77;2.08;;;;;;;21.10;59.13;100656.89;1680199;85;21706;-68
2022/07/08 08:13:56;;;;;;;3.87;2.30;;;;;;;21.16;58.98;100657.49;1678603;84;21087;-69
2022/07/08 08:16:30;;;;;;;3.93;2.13;;;;;;;21.25;59.18;100663.69;1679507;84;21092;-69
2022/07/08 08:19:05;;;;;;;2.87;2.17;;;;;;;21.38;59.35;100665.42;1671927;84;21150;-66
2022/07/08 08:21:39;;;;;;;4.03;2.47;;;;;;;21.50;58.53;100666.89;1654652;84;21114;-68
2022/07/08 08:24:07;;;;;;;3.90;2.20;;;;;;;21.53;58.34;100677.67;1672243;84;21063;-68
2022/07/08 08:26:43;;;;;;;5.30;2.27;;;;;;;21.59;58.57;100674.22;1680749;85;21067;-66
2022/07/08 08:29:20;;;;;;;3.77;2.13;;;;;;;21.66;58.25;100661.69;1678228;85;21570;-67
2022/07/08 08:31:56;;;;;;;5.17;2.30;;;;;;;21.73;58.44;100657.09;1671019;84;21496;-67
2022/07/08 08:34:23;;;;;;;4.20;2.00;;;;;;;21.82;58.29;100663.84;1660461;84;21078;-68
2022/07/08 08:36:51;;;;;;;4.60;2.00;;;;;;;21.89;58.09;100662.19;1680924;85;20995;-68
2022/07/08 08:39:18;;;;;;;3.33;2.00;;;;;;;21.99;57.96;100669.16;1668358;84;21065;-67
2022/07/08 08:41:49;;;;;;;3.95;2.10;;;;;;;22.05;57.37;100661.60;1651675;86;21074;-67
2022/07/08 08:44:22;;;;;;;3.37;1.80;;;;;;;22.06;57.32;100669.98;1651502;86;21087;-67
2022/07/08 08:46:56;;;;;;;4.07;2.13;;;;;;;22.09;57.37;100673.41;1652253;86;21592;-68
2022/07/08 08:49:24;;;;;;;3.90;2.00;;;;;;;22.17;57.49;100682.08;1663731;85;21087;-67
2022/07/08 08:51:51;;;;;;;3.80;2.00;;;;;;;22.21;57.51;100666.14;1679269;85;21052;-68
2022/07/08 08:54:19;;;;;;;3.00;1.80;;;;;;;22.32;57.75;100665.73;1670000;85;21579;-67
2022/07/08 08:56:49;;;;;;;3.87;2.12;;;;;;;22.42;57.18;100663.95;1666878;84;21171;-67
2022/07/08 08:59:16;;;;;;;3.07;2.10;;;;;;;22.51;56.89;100669.30;1668712;85;21489;-68
2022/07/08 09:01:43;;;;;;;3.10;2.00;;;;;;;22.53;56.75;100658.31;1653144;85;21051;-67
2022/07/08 09:04:11;;;;;;;3.30;2.10;;;;;;;22.58;56.95;100660.84;1672903;85;21017;-66
2022/07/08 09:06:39;;;;;;;3.57;1.90;;;;;;;22.63;56.51;100651.66;1667887;85;21063;-66
2022/07/08 09:09:06;;;;;;;4.27;1.80;;;;;;;22.64;56.44;100666.31;1680721;85;21233;-67
2022/07/08 09:11:33;;;;;;;3.37;1.90;;;;;;;22.64;56.00;100658.71;1680033;85;21586;-68
2022/07/08 09:14:18;;;;;;;3.90;2.10;;;;;;;22.61;55.86;100660.17;1676214;84;21019;-68
2022/07/08 09:17:09;;;;;;;4.83;2.40;;;;;;;22.58;55.74;100662.77;1678514;84;21613;-67
2022/07/08 09:19:41;;;;;;;3.37;1.90;;;;;;;22.50;55.90;100646.73;1683967;84;21079;-67
2022/07/08 09:22:08;;;;;;;3.92;2.20;;;;;;;22.45;56.09;100657.28;1677620;84;21594;-68
2022/07/08 09:24:36;;;;;;;2.90;1.97;;;;;;;22.44;56.33;100661.67;1674683;84;21074;-68
2022/07/08 09:27:10;;;;;;;2.60;1.83;;;;;;;22.52;56.55;100666.83;1672353;84;21039;-68
2022/07/08 09:29:58;;;;;;;2.80;2.00;;;;;;;22.58;56.51;100667.65;1671730;84;21091;-67
2022/07/08 09:32:24;;;;;;;3.73;2.10;;;;;;;22.65;56.58;100665.73;1674578;84;21192;-67
2022/07/08 09:34:51;;;;;;;4.57;2.30;;;;;;;22.69;55.86;100659.27;1674758;84;21212;-66
2022/07/08 09:37:19;;;;;;;3.87;2.10;;;;;;;22.73;56.06;100657.24;1673270;84;21081;-67
2022/07/08 09:39:46;;;;;;;2.90;2.17;;;;;;;22.77;56.05;100658.16;1673608;84;21074;-68
2022/07/08 09:42:14;;;;;;;4.50;2.30;;;;;;;22.81;55.70;100657.73;1672226;84;21094;-67
2022/07/08 09:44:41;;;;;;;4.90;2.10;;;;;;;22.86;55.52;100652.05;1672630;84;21585;-68
2022/07/08 09:47:13;;;;;;;2.93;2.03;;;;;;;22.94;55.49;100655.30;1671789;84;22135;-68
2022/07/08 09:49:42;;;;;;;2.70;2.00;;;;;;;23.05;55.30;100657.00;1675823;84;21052;-68
2022/07/08 09:52:10;;;;;;;4.33;2.17;;;;;;;23.09;54.63;100651.89;1675724;85;21035;-68
2022/07/08 09:54:36;;;;;;;2.80;2.20;;;;;;;23.08;54.46;100650.31;1663832;84;21291;-67
2022/07/08 09:57:07;;;;;;;3.03;2.10;;;;;;;23.10;54.86;100648.59;1670977;85;21097;-67
2022/07/08 09:59:35;;;;;;;5.20;2.72;;;;;;;23.22;55.07;100641.01;1673325;84;21274;-67
2022/07/08 10:02:03;;;;;;;2.83;1.73;;;;;;;23.41;54.65;100642.03;1670941;84;21476;-69
2022/07/08 10:04:30;;;;;;;3.03;1.90;;;;;;;23.55;54.05;100638.16;1671914;84;21573;-67
2022/07/08 10:06:57;;;;;;;3.30;2.00;;;;;;;23.58;53.54;100642.34;1670794;84;21049;-67
2022/07/08 10:09:26;;;;;;;4.67;2.37;;;;;;;23.56;53.58;100646.00;1670339;84;21096;-67
2022/07/08 10:11:53;;;;;;;3.33;2.20;;;;;;;23.61;53.57;100647.70;1671087;84;21885;-68
2022/07/08 10:14:20;;;;;;;2.60;1.90;;;;;;;23.72;52.86;100652.13;1667928;84;21063;-67
2022/07/08 10:16:47;;;;;;;2.90;2.17;;;;;;;23.80;52.35;100649.29;1671118;84;21131;-67
2022/07/08 10:19:30;;;;;;;3.60;1.93;;;;;;;23.86;52.40;100652.58;1669640;85;21058;-67
2022/07/08 10:21:57;;;;;;;3.17;1.87;;;;;;;23.92;51.91;100656.63;1668593;84;21040;-68
2022/07/08 10:24:27;;;;;;;2.40;1.90;;;;;;;24.07;52.04;100653.19;1666667;85;21102;-67
2022/07/08 10:26:59;;;;;;;3.13;1.90;;;;;;;24.30;51.74;100654.03;1671166;84;21681;-68
2022/07/08 10:29:29;;;;;;;2.40;1.80;;;;;;;24.50;51.00;100653.05;1679866;85;21066;-67
2022/07/08 10:31:56;;;;;;;4.03;2.20;;;;;;;24.62;49.85;100653.58;1669912;84;21025;-68
2022/07/08 10:34:33;;;;;;;3.73;2.07;;;;;;;24.71;49.98;100650.66;1666226;85;21064;-67
2022/07/08 10:37:03;;;;;;;4.33;2.03;;;;;;;24.82;49.79;100653.70;1666285;85;21520;-68
2022/07/08 10:39:39;;;;;;;3.33;1.90;;;;;;;24.88;49.21;100647.63;1675551;84;21082;-66
2022/07/08 10:42:08;;;;;;;2.53;1.90;;;;;;;24.91;49.16;100650.20;1673341;84;21057;-68
2022/07/08 10:44:47;;;;;;;4.73;2.37;;;;;;;24.96;49.04;100645.85;1674113;84;21115;-67
2022/07/08 10:47:24;;;;;;;2.50;1.83;;;;;;;25.00;48.84;100646.73;1677974;84;22167;-68
2022/07/08 10:49:51;;;;;;;3.73;2.03;;;;;;;25.09;49.06;100649.30;1662403;85;21147;-68
2022/07/08 10:52:21;;;;;;;3.83;2.00;;;;;;;25.17;48.29;100642.33;1678704;85;21087;-67
2022/07/08 10:54:46;;;;;;;4.23;2.10;;;;;;;25.18;48.28;100637.06;1681133;85;21054;-68
2022/07/08 10:57:27;;;;;;;4.57;1.70;;;;;;;25.25;48.44;100632.34;1682583;85;21046;-67
2022/07/08 11:00:10;;;;;;;3.25;2.00;;;;;;;25.38;47.67;100636.56;1656976;85;21145;-66
2022/07/08 11:02:45;;;;;;;3.93;1.80;;;;;;;25.53;46.86;100635.51;1680585;84;21118;-67
2022/07/08 11:05:39;;;;;;;3.20;1.50;;;;;;;25.60;46.21;100631.56;1678021;85;21004;-67
2022/07/08 11:08:24;;;;;;;2.43;1.60;;;;;;;25.57;45.73;100629.53;1676915;84;21086;-68
2022/07/08 11:10:52;;;;;;;2.13;1.40;;;;;;;25.46;46.22;100635.56;1675873;84;20983;-68
2022/07/08 11:13:20;;;;;;;2.20;1.40;;;;;;;25.52;46.00;100626.52;1676085;84;21052;-67
2022/07/08 11:15:47;;;;;;;2.27;1.63;;;;;;;25.57;45.19;100619.96;1674953;84;21138;-67
2022/07/08 11:18:21;;;;;;;3.30;1.47;;;;;;;25.54;45.06;100616.60;1675268;84;20992;-67
2022/07/08 11:20:49;;;;;;;3.00;1.47;;;;;;;25.53;45.14;100618.52;1675229;84;21633;-67
2022/07/08 11:23:16;;;;;;;2.30;1.50;;;;;;;25.50;45.02;100614.58;1673700;84;21062;-67
2022/07/08 11:25:43;;;;;;;2.00;1.40;;;;;;;25.55;45.28;100612.71;1629408;86;20983;-68
2022/07/08 11:28:21;;;;;;;2.67;1.40;;;;;;;25.68;44.99;100612.22;1653451;86;21100;-68
2022/07/08 11:30:48;;;;;;;1.87;1.30;;;;;;;25.82;44.39;100615.86;1671874;84;21019;-67
2022/07/08 11:33:16;;;;;;;2.13;1.63;;;;;;;25.88;44.32;100615.80;1675050;84;21360;-67